Weather at Manila International Container Terminal (MICT) Heliport

Public forecast

Using degrees Celsius for public forecast. Weather courtesy of forecast.io.

Closest aviation weather report (METAR) to Manila International Container Terminal (MICT) Heliport

Closest report is Ninoy Aquino International Airport, 6.5 nm (12.1 km) SE. Retrieved 2020/10/22 00:00 UTC (39 minutes ago):

RPLL 220000Z 11005KT 060V150 9999 FEW023 SCT300 29/25 Q1006 NOSIG RMK A2971

Closest aviation forecast (TAF) to Manila International Container Terminal (MICT) Heliport

Closest forecast is Ninoy Aquino International Airport, 6.5 nm (12.1 km) SE. Retrieved 2020-10-22 00:00 UTC (39 minutes ago):

TAF RPLL 212300Z 2200/2306 24006KT 9999 FEW025 SCT100 TX32/2206Z TN26/2221Z TEMPO 2200/2206 14010KT -SHRA SCT023 BKN100 TEMPO 2206/2212 26012KT -SHRA FEW022CB SCT023 BKN090